Station Historical Data
Daily Summary for November 28, 2017 Units:  English    Metric   Both
« Previous Day
Next Day »
Daily Weekly Monthly Yearly Custom
  High: Low: Average:
Temperature: 65.3 °F 29.5 °F 49.4 °F
Dew Point: 39.5 °F 24.8 °F 33.2 °F
Humidity: 86% 36% 57%
Wind Speed: 19.0mph 0.0mph 5mph
Wind Gust: 28.0mph - -
Wind- - SSW
Pressure: 30.19 in 29.94 in -
Precipitation: 0.00 in    
Historical Graphs
 
 
Tabular Data for November 28, 2017
Time Temperature Dew Point Pressure Wind Wind Speed Wind Gust Humidity Rainfall Rate (Hourly)
00:04 29.6 °F 24.8 °F 30.19 in East 1.0 mph 5.0 mph 82% 0.00 in
00:09 29.6 °F 24.8 °F 30.19 in Calm   6.0 mph 82% 0.00 in
00:14 29.6 °F 24.8 °F 30.19 in Calm   2.0 mph 82% 0.00 in
00:19 29.6 °F 25.1 °F 30.19 in Calm   3.0 mph 83% 0.00 in
00:24 29.5 °F 25.0 °F 30.19 in Calm   1.0 mph 83% 0.00 in
00:29 29.6 °F 25.1 °F 30.19 in Calm   3.0 mph 83% 0.00 in
00:34 29.6 °F 25.1 °F 30.19 in Calm   3.0 mph 83% 0.00 in
00:39 29.7 °F 25.2 °F 30.18 in East 1.0 mph 3.0 mph 83% 0.00 in
00:44 29.8 °F 25.3 °F 30.17 in East 1.0 mph 3.0 mph 83% 0.00 in
00:49 29.7 °F 25.2 °F 30.17 in Calm   1.0 mph 83% 0.00 in
00:54 29.8 °F 25.3 °F 30.17 in Calm   3.0 mph 83% 0.00 in
00:59 29.8 °F 25.3 °F 30.17 in Calm   4.0 mph 83% 0.00 in
01:04 29.9 °F 25.4 °F 30.17 in Calm   4.0 mph 83% 0.00 in
01:09 29.9 °F 25.4 °F 30.17 in Calm     83% 0.00 in
01:14 30.1 °F 25.6 °F 30.17 in Calm     83% 0.00 in
01:19 30.1 °F 25.6 °F 30.17 in Calm   2.0 mph 83% 0.00 in
01:24 30.2 °F 25.7 °F 30.17 in Calm   1.0 mph 83% 0.00 in
01:29 30.2 °F 25.7 °F 30.17 in Calm     83% 0.00 in
01:34 30.3 °F 25.8 °F 30.17 in Calm   1.0 mph 83% 0.00 in
01:39 30.3 °F 25.8 °F 30.17 in Calm   1.0 mph 83% 0.00 in
01:44 30.4 °F 25.9 °F 30.17 in Calm     83% 0.00 in
01:49 30.4 °F 25.9 °F 30.17 in Calm     83% 0.00 in
01:54 30.4 °F 25.9 °F 30.17 in Calm     83% 0.00 in
01:59 30.4 °F 25.9 °F 30.17 in Calm     83% 0.00 in
02:04 30.3 °F 25.8 °F 30.16 in Calm     83% 0.00 in
02:09 30.2 °F 25.7 °F 30.17 in Calm     83% 0.00 in
02:14 30.1 °F 25.8 °F 30.17 in Calm     84% 0.00 in
02:19 29.9 °F 25.7 °F 30.16 in Calm     84% 0.00 in
02:24 29.8 °F 25.6 °F 30.17 in Calm     84% 0.00 in
02:29 30.0 °F 25.8 °F 30.16 in Calm     84% 0.00 in
02:34 29.9 °F 25.7 °F 30.16 in Calm     84% 0.00 in
02:39 29.9 °F 25.7 °F 30.17 in Calm     84% 0.00 in
02:44 29.9 °F 25.9 °F 30.16 in Calm     85% 0.00 in
02:49 30.1 °F 26.1 °F 30.16 in Calm     85% 0.00 in
02:54 30.3 °F 26.3 °F 30.16 in Calm     85% 0.00 in
02:59 30.4 °F 26.4 °F 30.16 in Calm   2.0 mph 85% 0.00 in
03:04 30.7 °F 26.7 °F 30.16 in Calm   1.0 mph 85% 0.00 in
03:09 30.8 °F 26.5 °F 30.15 in Calm   1.0 mph 84% 0.00 in
03:14 31.0 °F 26.7 °F 30.15 in Calm   1.0 mph 84% 0.00 in
03:19 31.2 °F 26.9 °F 30.15 in Calm     84% 0.00 in
03:24 31.4 °F 27.1 °F 30.15 in Calm     84% 0.00 in
03:29 31.5 °F 27.2 °F 30.15 in Calm     84% 0.00 in
03:34 31.6 °F 27.3 °F 30.15 in Calm     84% 0.00 in
03:39 31.7 °F 27.4 °F 30.15 in Calm     84% 0.00 in
03:44 31.6 °F 27.0 °F 30.14 in Calm     83% 0.00 in
03:49 31.7 °F 27.4 °F 30.14 in Calm     84% 0.00 in
03:54 31.7 °F 27.1 °F 30.14 in Calm     83% 0.00 in
03:59 31.7 °F 27.4 °F 30.14 in Calm     84% 0.00 in
04:04 31.7 °F 27.4 °F 30.14 in Calm     84% 0.00 in
04:09 31.7 °F 27.4 °F 30.14 in Calm     84% 0.00 in
04:14 31.7 °F 27.4 °F 30.14 in Calm     84% 0.00 in
04:19 31.9 °F 27.6 °F 30.14 in Calm     84% 0.00 in
04:24 32.0 °F 27.7 °F 30.14 in Calm     84% 0.00 in
04:29 32.1 °F 27.8 °F 30.14 in Calm     84% 0.00 in
04:34 32.2 °F 27.9 °F 30.14 in Calm     84% 0.00 in
04:39 32.2 °F 27.9 °F 30.14 in Calm     84% 0.00 in
04:44 32.0 °F 27.7 °F 30.14 in Calm     84% 0.00 in
04:49 31.8 °F 27.5 °F 30.14 in Calm     84% 0.00 in
04:54 31.8 °F 27.5 °F 30.14 in Calm     84% 0.00 in
04:59 32.2 °F 28.2 °F 30.14 in Calm     85% 0.00 in
05:04 32.5 °F 28.5 °F 30.14 in Calm     85% 0.00 in
05:09 32.4 °F 28.1 °F 30.14 in Calm     84% 0.00 in
05:14 32.3 °F 28.0 °F 30.14 in Calm     84% 0.00 in
05:19 32.0 °F 27.7 °F 30.14 in Calm     84% 0.00 in
05:24 31.7 °F 27.4 °F 30.14 in Calm     84% 0.00 in
05:29 31.5 °F 27.2 °F 30.14 in Calm     84% 0.00 in
05:34 31.6 °F 27.6 °F 30.13 in Calm     85% 0.00 in
05:39 31.5 °F 27.5 °F 30.13 in Calm     85% 0.00 in
05:44 31.6 °F 27.6 °F 30.14 in Calm     85% 0.00 in
05:49 31.9 °F 28.2 °F 30.14 in Calm   3.0 mph 86% 0.00 in
05:54 33.0 °F 29.3 °F 30.14 in Calm   3.0 mph 86% 0.00 in
05:59 35.9 °F 32.1 °F 30.14 in SSW 1.0 mph 6.0 mph 86% 0.00 in
06:04 38.9 °F 33.9 °F 30.14 in SSW 2.0 mph 7.0 mph 82% 0.00 in
06:09 40.8 °F 34.1 °F 30.13 in SSW 3.0 mph 7.0 mph 77% 0.00 in
06:14 41.8 °F 34.1 °F 30.13 in SSW 3.0 mph 7.0 mph 74% 0.00 in
06:19 42.4 °F 34.0 °F 30.13 in SSW 7.0 mph 7.0 mph 72% 0.00 in
06:24 43.0 °F 33.9 °F 30.13 in SSW 3.0 mph 9.0 mph 70% 0.00 in
06:29 43.3 °F 33.8 °F 30.13 in SSW 5.0 mph 7.0 mph 69% 0.00 in
06:34 43.6 °F 33.7 °F 30.13 in SSW 4.0 mph 9.0 mph 68% 0.00 in
06:39 43.8 °F 33.9 °F 30.13 in SSW 3.0 mph 7.0 mph 68% 0.00 in
06:44 44.0 °F 33.7 °F 30.13 in SW 4.0 mph 10.0 mph 67% 0.00 in
06:49 44.3 °F 33.7 °F 30.13 in SW 4.0 mph 10.0 mph 66% 0.00 in
06:54 44.3 °F 33.7 °F 30.13 in SSW 5.0 mph 10.0 mph 66% 0.00 in
06:59 44.3 °F 33.7 °F 30.14 in SSW 4.0 mph 9.0 mph 66% 0.00 in
07:04 44.3 °F 33.7 °F 30.13 in SSW 4.0 mph 9.0 mph 66% 0.00 in
07:14 44.0 °F 33.4 °F 30.13 in SSW 4.0 mph 9.0 mph 66% 0.00 in
07:24 44.7 °F 33.6 °F 30.13 in SSW 4.0 mph 9.0 mph 65% 0.00 in
07:29 44.7 °F 33.6 °F 30.13 in South 7.0 mph 9.0 mph 65% 0.00 in
07:34 45.1 °F 33.6 °F 30.13 in South 3.0 mph 8.0 mph 64% 0.00 in
07:39 45.5 °F 33.6 °F 30.13 in SSW 2.0 mph 8.0 mph 63% 0.00 in
07:49 46.3 °F 34.0 °F 30.13 in SW 3.0 mph 11.0 mph 62% 0.00 in
07:54 46.7 °F 34.0 °F 30.13 in SSW 5.0 mph 11.0 mph 61% 0.00 in
07:59 47.3 °F 34.1 °F 30.13 in SSW 6.0 mph 15.0 mph 60% 0.00 in
08:04 47.8 °F 34.2 °F 30.12 in SSW 7.0 mph 15.0 mph 59% 0.00 in
08:09 48.1 °F 34.4 °F 30.12 in SSW 7.0 mph 16.0 mph 59% 0.00 in
08:19 48.5 °F 34.4 °F 30.11 in South 6.0 mph 12.0 mph 58% 0.00 in
08:24 48.8 °F 34.2 °F 30.11 in SSW 7.0 mph 16.0 mph 57% 0.00 in
08:34 49.6 °F 34.5 °F 30.11 in SSW 4.0 mph 20.0 mph 56% 0.00 in
08:44 50.4 °F 34.4 °F 30.11 in SSE 5.0 mph 15.0 mph 54% 0.00 in
08:49 50.6 °F 34.6 °F 30.11 in SSW 3.0 mph 12.0 mph 54% 0.00 in
08:54 51.1 °F 35.0 °F 30.11 in South 11.0 mph 19.0 mph 54% 0.00 in
08:59 51.5 °F 34.9 °F 30.11 in SSW 7.0 mph 20.0 mph 53% 0.00 in
09:04 51.9 °F 35.3 °F 30.11 in SSW 8.0 mph 20.0 mph 53% 0.00 in
09:09 52.3 °F 35.2 °F 30.11 in SSW 8.0 mph 17.0 mph 52% 0.00 in
09:14 52.5 °F 35.4 °F 30.11 in SSW 8.0 mph 17.0 mph 52% 0.00 in
09:19 52.8 °F 35.6 °F 30.11 in SSW 8.0 mph 17.0 mph 52% 0.00 in
09:34 53.7 °F 35.5 °F 30.11 in SSW 14.0 mph 18.0 mph 50% 0.00 in
09:39 54.0 °F 35.8 °F 30.10 in SSW 9.0 mph 17.0 mph 50% 0.00 in
09:49 54.6 °F 35.3 °F 30.11 in SSW 10.0 mph 14.0 mph 48% 0.00 in
09:59 55.0 °F 35.7 °F 30.10 in SSW 8.0 mph 18.0 mph 48% 0.00 in
10:04 55.4 °F 36.5 °F 30.10 in SSW 7.0 mph 18.0 mph 49% 0.00 in
10:09 55.9 °F 35.9 °F 30.10 in SSW 7.0 mph 18.0 mph 47% 0.00 in
10:24 57.0 °F 36.4 °F 30.10 in SSW 7.0 mph 19.0 mph 46% 0.00 in
10:29 57.3 °F 36.1 °F 30.09 in SSW 7.0 mph 19.0 mph 45% 0.00 in
10:34 57.7 °F 35.9 °F 30.09 in SSW 7.0 mph 17.0 mph 44% 0.00 in
10:39 58.0 °F 36.2 °F 30.09 in South 3.0 mph 14.0 mph 44% 0.00 in
10:49 58.6 °F 36.2 °F 30.08 in SSW 14.0 mph 15.0 mph 43% 0.00 in
10:54 58.7 °F 36.2 °F 30.08 in SSE 9.0 mph 15.0 mph 43% 0.00 in
11:09 59.4 °F 36.3 °F 30.07 in SSW 9.0 mph 18.0 mph 42% 0.00 in
11:14 59.8 °F 36.0 °F 30.07 in WSW 10.0 mph 19.0 mph 41% 0.00 in
11:20 60.0 °F 36.2 °F 30.06 in SSW 9.0 mph 19.0 mph 41% 0.00 in
11:29 60.6 °F 35.5 °F 30.06 in SSW 8.0 mph 18.0 mph 39% 0.00 in
11:34 61.0 °F 36.5 °F 30.06 in SSW 8.0 mph 17.0 mph 40% 0.00 in
11:39 61.1 °F 36.6 °F 30.05 in SSW 8.0 mph 17.0 mph 40% 0.00 in
11:54 61.4 °F 36.8 °F 30.05 in SW 8.0 mph 18.0 mph 40% 0.00 in
11:59 61.6 °F 35.7 °F 30.04 in South 8.0 mph 23.0 mph 38% 0.00 in
12:04 62.0 °F 36.1 °F 30.04 in South 6.0 mph 16.0 mph 38% 0.00 in
12:09 62.2 °F 36.3 °F 30.04 in SSW 5.0 mph 20.0 mph 38% 0.00 in
12:14 62.5 °F 37.2 °F 30.04 in WSW 19.0 mph 19.0 mph 39% 0.00 in
12:19 62.6 °F 36.6 °F 30.04 in SSW 9.0 mph 17.0 mph 38% 0.00 in
12:24 62.9 °F 36.9 °F 30.04 in SW 10.0 mph 18.0 mph 38% 0.00 in
12:29 63.0 °F 36.3 °F 30.04 in SSW 7.0 mph 18.0 mph 37% 0.00 in
12:34 62.9 °F 36.9 °F 30.04 in SSW 8.0 mph 18.0 mph 38% 0.00 in
12:44 63.3 °F 37.2 °F 30.03 in SSW 7.0 mph 18.0 mph 38% 0.00 in
12:49 63.0 °F 37.6 °F 30.03 in SSW 7.0 mph 17.0 mph 39% 0.00 in
12:59 63.4 °F 37.3 °F 30.03 in SSW 7.0 mph 17.0 mph 38% 0.00 in
13:04 63.4 °F 36.7 °F 30.03 in SSW 8.0 mph 19.0 mph 37% 0.00 in
13:09 63.6 °F 37.5 °F 30.02 in SSW 9.0 mph 19.0 mph 38% 0.00 in
13:14 63.8 °F 37.0 °F 30.02 in SW 8.0 mph 15.0 mph 37% 0.00 in
13:24 64.3 °F 37.5 °F 30.02 in South 6.0 mph 12.0 mph 37% 0.00 in
13:29 64.4 °F 37.5 °F 30.02 in SW 6.0 mph 22.0 mph 37% 0.00 in
13:34 64.5 °F 37.6 °F 30.02 in SW 8.0 mph 22.0 mph 37% 0.00 in
13:39 64.6 °F 37.7 °F 30.01 in SW 8.0 mph 18.0 mph 37% 0.00 in
13:44 65.1 °F 39.5 °F 30.01 in SSE 3.0 mph 15.0 mph 39% 0.00 in
13:49 65.3 °F 38.3 °F 30.01 in SW 8.0 mph 17.0 mph 37% 0.00 in
13:54 65.2 °F 38.3 °F 30.01 in SW 5.0 mph 21.0 mph 37% 0.00 in
14:04 65.0 °F 38.1 °F 30.01 in SW 10.0 mph 22.0 mph 37% 0.00 in
14:19 64.9 °F 38.7 °F 30.00 in SW 5.0 mph 12.0 mph 38% 0.00 in
14:29 64.4 °F 38.2 °F 30.00 in SW 9.0 mph 18.0 mph 38% 0.00 in
14:34 64.5 °F 39.0 °F 29.99 in SW 8.0 mph 17.0 mph 39% 0.00 in
14:39 64.3 °F 39.4 °F 29.99 in SW 3.0 mph 11.0 mph 40% 0.00 in
14:44 64.1 °F 38.6 °F 29.99 in WSW 7.0 mph 15.0 mph 39% 0.00 in
14:54 64.2 °F 38.7 °F 29.99 in SW 5.0 mph 9.0 mph 39% 0.00 in
15:04 64.5 °F 38.3 °F 29.99 in SW 6.0 mph 13.0 mph 38% 0.00 in
15:09 64.6 °F 37.7 °F 29.99 in SW 7.0 mph 12.0 mph 37% 0.00 in
15:14 64.5 °F 37.6 °F 29.99 in SW 7.0 mph 14.0 mph 37% 0.00 in
15:19 64.6 °F 37.0 °F 29.99 in SSW 7.0 mph 14.0 mph 36% 0.00 in
15:24 64.5 °F 37.6 °F 29.99 in SW 6.0 mph 14.0 mph 37% 0.00 in
15:29 64.1 °F 37.3 °F 29.99 in SW 5.0 mph 12.0 mph 37% 0.00 in
15:34 63.7 °F 38.3 °F 29.99 in WSW 3.0 mph 8.0 mph 39% 0.00 in
15:39 62.9 °F 38.8 °F 29.99 in SW 4.0 mph 9.0 mph 41% 0.00 in
15:49 61.5 °F 39.4 °F 29.99 in West 4.0 mph 8.0 mph 44% 0.00 in
15:54 61.1 °F 39.0 °F 29.98 in WSW 5.0 mph 8.0 mph 44% 0.00 in
15:59 60.8 °F 39.3 °F 29.98 in SSW 2.0 mph 7.0 mph 45% 0.00 in
16:04 60.8 °F 38.7 °F 29.98 in SW 4.0 mph 8.0 mph 44% 0.00 in
16:09 61.3 °F 38.0 °F 29.97 in SSW 4.0 mph 9.0 mph 42% 0.00 in
16:14 62.0 °F 37.4 °F 29.97 in SSW 5.0 mph 10.0 mph 40% 0.00 in
16:19 62.2 °F 36.9 °F 29.97 in SSW 8.0 mph 12.0 mph 39% 0.00 in
16:24 62.4 °F 36.4 °F 29.97 in SSW 7.0 mph 16.0 mph 38% 0.00 in
16:34 62.2 °F 36.3 °F 29.97 in SSW 5.0 mph 12.0 mph 38% 0.00 in
16:39 61.6 °F 35.7 °F 29.97 in South 3.0 mph 9.0 mph 38% 0.00 in
16:49 61.3 °F 36.1 °F 29.97 in SSW 4.0 mph 10.0 mph 39% 0.00 in
16:54 61.1 °F 36.6 °F 29.97 in SW 5.0 mph 11.0 mph 40% 0.00 in
16:59 60.7 °F 36.2 °F 29.97 in SSW 4.0 mph 10.0 mph 40% 0.00 in
17:09 60.7 °F 36.2 °F 29.97 in SSW 5.0 mph 14.0 mph 40% 0.00 in
17:14 60.6 °F 36.1 °F 29.97 in SSW 5.0 mph 14.0 mph 40% 0.00 in
17:24 59.9 °F 36.1 °F 29.97 in SSW 5.0 mph 13.0 mph 41% 0.00 in
17:34 59.8 °F 36.0 °F 29.96 in SSW 5.0 mph 13.0 mph 41% 0.00 in
17:39 59.7 °F 35.9 °F 29.96 in SSW 3.0 mph 10.0 mph 41% 0.00 in
17:54 59.7 °F 35.9 °F 29.96 in WSW 8.0 mph 16.0 mph 41% 0.00 in
18:14 59.7 °F 35.9 °F 29.95 in WSW 7.0 mph 16.0 mph 41% 0.00 in
18:19 59.9 °F 36.1 °F 29.95 in SSW 8.0 mph 18.0 mph 41% 0.00 in
18:29 59.8 °F 36.6 °F 29.95 in SW 6.0 mph 16.0 mph 42% 0.00 in
18:34 59.7 °F 36.6 °F 29.95 in SSW 7.0 mph 16.0 mph 42% 0.00 in
18:39 59.4 °F 36.3 °F 29.95 in SSW 6.0 mph 15.0 mph 42% 0.00 in
18:44 59.6 °F 36.5 °F 29.96 in SSW 5.0 mph 18.0 mph 42% 0.00 in
18:49 59.4 °F 36.9 °F 29.95 in SSE 6.0 mph 15.0 mph 43% 0.00 in
18:54 59.5 °F 37.0 °F 29.95 in South 10.0 mph 17.0 mph 43% 0.00 in
18:59 59.5 °F 37.0 °F 29.95 in SW 5.0 mph 15.0 mph 43% 0.00 in
19:04 59.6 °F 37.1 °F 29.94 in SSW 9.0 mph 18.0 mph 43% 0.00 in
19:09 59.9 °F 36.7 °F 29.94 in SSW 9.0 mph 21.0 mph 42% 0.00 in
19:14 59.9 °F 36.7 °F 29.94 in SSW 9.0 mph 21.0 mph 42% 0.00 in
19:19 59.8 °F 36.6 °F 29.94 in SSW 8.0 mph 19.0 mph 42% 0.00 in
19:24 59.8 °F 37.2 °F 29.95 in SSW 11.0 mph 21.0 mph 43% 0.00 in
19:34 59.7 °F 37.2 °F 29.95 in WSW 14.0 mph 16.0 mph 43% 0.00 in
19:39 59.5 °F 37.0 °F 29.95 in SSW 9.0 mph 19.0 mph 43% 0.00 in
19:44 59.4 °F 36.9 °F 29.95 in SSW 8.0 mph 19.0 mph 43% 0.00 in
19:49 59.1 °F 37.2 °F 29.95 in SSW 7.0 mph 19.0 mph 44% 0.00 in
19:54 59.0 °F 37.1 °F 29.95 in SSW 7.0 mph 19.0 mph 44% 0.00 in
19:59 58.9 °F 37.0 °F 29.95 in SW 6.0 mph 13.0 mph 44% 0.00 in
20:04 58.9 °F 37.0 °F 29.94 in South 5.0 mph 15.0 mph 44% 0.00 in
20:09 58.7 °F 36.8 °F 29.95 in SSW 8.0 mph 17.0 mph 44% 0.00 in
20:19 58.7 °F 36.8 °F 29.95 in South 3.0 mph 13.0 mph 44% 0.00 in
20:24 58.5 °F 37.2 °F 29.95 in SW 5.0 mph 14.0 mph 45% 0.00 in
20:29 58.5 °F 37.2 °F 29.95 in SSW 4.0 mph 15.0 mph 45% 0.00 in
20:34 58.4 °F 36.6 °F 29.94 in SSW 7.0 mph 18.0 mph 44% 0.00 in
20:39 58.5 °F 36.6 °F 29.95 in SSW 8.0 mph 18.0 mph 44% 0.00 in
20:49 58.4 °F 36.6 °F 29.94 in SSW 8.0 mph 15.0 mph 44% 0.00 in
20:59 58.1 °F 36.3 °F 29.94 in SSW 7.0 mph 17.0 mph 44% 0.00 in
21:04 57.9 °F 36.1 °F 29.94 in SSW 7.0 mph 16.0 mph 44% 0.00 in
21:09 58.0 °F 36.2 °F 29.94 in SSE 5.0 mph 13.0 mph 44% 0.00 in
21:14 58.1 °F 36.3 °F 29.95 in SW 8.0 mph 17.0 mph 44% 0.00 in
21:19 58.2 °F 35.8 °F 29.94 in SSW 8.0 mph 14.0 mph 43% 0.00 in
21:24 58.4 °F 36.0 °F 29.94 in SSE 6.0 mph 16.0 mph 43% 0.00 in
21:29 58.6 °F 35.6 °F 29.95 in South 8.0 mph 15.0 mph 42% 0.00 in
21:34 58.8 °F 35.7 °F 29.94 in SW 11.0 mph 20.0 mph 42% 0.00 in
21:49 59.0 °F 35.3 °F 29.95 in SW 9.0 mph 20.0 mph 41% 0.00 in
21:59 58.9 °F 34.6 °F 29.94 in SW 9.0 mph 22.0 mph 40% 0.00 in
22:04 58.9 °F 34.6 °F 29.95 in SW 8.0 mph 22.0 mph 40% 0.00 in
22:09 59.0 °F 34.1 °F 29.95 in SW 11.0 mph 22.0 mph 39% 0.00 in
22:20 59.0 °F 34.1 °F 29.95 in SW 12.0 mph 24.0 mph 39% 0.00 in
22:29 58.9 °F 34.0 °F 29.95 in SW 10.0 mph 25.0 mph 39% 0.00 in
22:34 58.9 °F 34.0 °F 29.95 in SSW 10.0 mph 17.0 mph 39% 0.00 in
22:39 58.8 °F 33.9 °F 29.95 in SW 13.0 mph 20.0 mph 39% 0.00 in
22:44 58.7 °F 33.8 °F 29.95 in SW 10.0 mph 22.0 mph 39% 0.00 in
22:49 58.5 °F 33.6 °F 29.95 in SW 10.0 mph 22.0 mph 39% 0.00 in
22:54 58.5 °F 33.6 °F 29.95 in SW 11.0 mph 21.0 mph 39% 0.00 in
23:04 58.3 °F 34.7 °F 29.95 in SW 11.0 mph 25.0 mph 41% 0.00 in
23:09 58.2 °F 34.6 °F 29.95 in SSW 9.0 mph 18.0 mph 41% 0.00 in
23:14 58.0 °F 34.4 °F 29.95 in West 7.0 mph 17.0 mph 41% 0.00 in
23:19 57.8 °F 34.8 °F 29.95 in SW 19.0 mph 21.0 mph 42% 0.00 in
23:24 57.7 °F 34.7 °F 29.95 in SSW 12.0 mph 19.0 mph 42% 0.00 in
23:29 57.6 °F 34.7 °F 29.95 in SSW 8.0 mph 22.0 mph 42% 0.00 in
23:34 57.6 °F 35.2 °F 29.95 in SW 15.0 mph 22.0 mph 43% 0.00 in
23:39 57.6 °F 35.2 °F 29.95 in WSW 13.0 mph 28.0 mph 43% 0.00 in
23:44 57.4 °F 35.1 °F 29.94 in SW 13.0 mph 28.0 mph 43% 0.00 in
23:49 57.4 °F 35.1 °F 29.94 in SW 13.0 mph 26.0 mph 43% 0.00 in
Buffalo, New York, USA
Compliments of Weather Underground - 2.25 mb